Time;durP1;ratioP1;P1;durP2;ratioP2;P2;SDS_P1;SDS_P2;PMS_P1;PMS_P2;Temp;Humidity;BMP_temperature;BMP_pressure;BME280_temperature;BME280_humidity;BME280_pressure;Samples;Min_cycle;Max_cycle;Signal;HPM_P1;HPM_P2
2022/09/30 00:01:24;;;;;;;0.10;0.10;;;;;;;18.39;63.71;99198.00;5070406;28;20623;-88
2022/09/30 00:03:51;;;;;;;0.77;0.77;;;;;;;18.63;63.91;99224.28;5049119;28;20502;-88
2022/09/30 00:06:16;;;;;;;0.57;0.57;;;;;;;18.52;63.98;99222.19;5051046;28;20119;-88
2022/09/30 00:08:42;;;;;;;0.20;0.20;;;;;;;18.64;64.07;99252.72;5050477;28;20125;-88
2022/09/30 00:11:12;;;;;;;0.30;0.30;;;;;;;18.74;64.10;99260.13;5056150;28;20082;-88
2022/09/30 00:13:39;;;;;;;2.17;0.80;;;;;;;18.71;64.00;99246.09;5070358;28;20040;-88
2022/09/30 00:16:07;;;;;;;1.35;0.95;;;;;;;18.68;64.31;99275.66;5069945;28;20556;-88
2022/09/30 00:18:32;;;;;;;1.02;1.02;;;;;;;18.29;65.95;99274.19;5070572;28;20089;-91
2022/09/30 00:20:58;;;;;;;1.27;1.17;;;;;;;18.38;65.85;99285.25;5070727;28;20028;-90
2022/09/30 00:23:24;;;;;;;0.30;0.30;;;;;;;18.25;65.56;99273.50;5070261;28;20111;-91
2022/09/30 00:25:56;;;;;;;0.90;0.85;;;;;;;17.79;64.80;99206.50;5070003;28;20494;-90
2022/09/30 00:28:21;;;;;;;0.10;0.10;;;;;;;18.03;65.26;99266.63;5069777;28;20058;-90
2022/09/30 00:30:47;;;;;;;1.20;1.10;;;;;;;17.91;65.13;99258.41;5070225;28;20067;-89
2022/09/30 00:33:12;;;;;;;0.35;0.35;;;;;;;18.11;64.65;99258.22;5070488;28;20032;-89
2022/09/30 00:35:38;;;;;;;0.63;0.63;;;;;;;18.21;64.93;99263.91;5069541;28;20039;-90
2022/09/30 00:38:03;;;;;;;0.60;0.60;;;;;;;18.06;65.08;99254.94;5070189;28;20103;-90
2022/09/30 00:40:29;;;;;;;0.30;0.30;;;;;;;18.20;65.06;99275.56;5070077;28;20080;-91
2022/09/30 00:42:55;;;;;;;0.47;0.47;;;;;;;18.02;66.05;99274.69;5069351;28;20040;-89
2022/09/30 00:45:21;;;;;;;1.10;0.98;;;;;;;17.74;65.65;99232.56;5069769;28;20033;-90
2022/09/30 00:47:56;;;;;;;0.10;0.10;;;;;;;18.19;65.31;99298.69;5070062;28;20032;-90
2022/09/30 00:50:24;;;;;;;0.10;0.10;;;;;;;18.16;65.76;99295.34;5069873;28;20032;-90
2022/09/30 00:52:57;;;;;;;0.68;0.65;;;;;;;18.13;65.79;99276.81;5069965;28;20491;-90
2022/09/30 00:55:30;;;;;;;2.28;1.45;;;;;;;18.12;65.83;99313.31;5069465;28;20050;-90
2022/09/30 00:57:56;;;;;;;0.90;0.90;;;;;;;17.77;66.17;99245.75;5069630;28;20150;-90
2022/09/30 01:00:21;;;;;;;0.25;0.25;;;;;;;18.01;66.25;99305.88;5070254;28;20060;-90
2022/09/30 01:02:48;;;;;;;0.70;0.70;;;;;;;17.90;66.23;99273.53;5069671;28;20117;-88
2022/09/30 01:05:14;;;;;;;0.70;0.68;;;;;;;18.03;66.50;99314.66;5068067;28;20047;-89
2022/09/30 01:07:39;;;;;;;0.68;0.68;;;;;;;17.86;66.75;99279.94;5069001;28;20154;-88
2022/09/30 01:10:06;;;;;;;0.10;0.10;;;;;;;17.96;66.36;99285.69;5069004;28;20051;-88
2022/09/30 01:12:32;;;;;;;0.20;0.20;;;;;;;17.81;66.57;99281.97;5069544;28;20036;-88
2022/09/30 01:15:00;;;;;;;1.17;1.05;;;;;;;17.87;66.66;99295.00;5068773;28;20039;-89
2022/09/30 01:17:35;;;;;;;0.28;0.28;;;;;;;17.85;67.41;99321.75;5069531;28;20085;-88
2022/09/30 01:20:25;;;;;;;2.40;1.20;;;;;;;17.93;67.24;99328.56;5069107;28;20409;-89
2022/09/30 01:23:22;;;;;;;0.50;0.50;;;;;;;17.80;67.40;99328.28;5069300;28;20032;-89
2022/09/30 01:26:03;;;;;;;0.10;0.10;;;;;;;17.41;68.54;99292.88;5068987;28;20807;-88
2022/09/30 01:28:47;;;;;;;0.95;0.80;;;;;;;17.62;68.24;99328.25;5065087;28;20036;-89
2022/09/30 01:31:31;;;;;;;0.77;0.30;;;;;;;17.59;68.35;99322.22;5059940;28;20041;-89
2022/09/30 01:34:09;;;;;;;0.52;0.52;;;;;;;17.51;68.04;99290.59;5068642;28;20053;-90
2022/09/30 01:37:06;;;;;;;1.08;0.82;;;;;;;17.66;68.21;99331.66;5057754;28;20098;-88
2022/09/30 01:40:01;;;;;;;0.40;0.40;;;;;;;17.17;69.59;99273.59;5036748;28;20068;-88
2022/09/30 01:42:34;;;;;;;;;;;;;;;17.45;69.84;99326.41;5049315;28;20036;-89
2022/09/30 01:45:13;;;;;;;0.10;0.10;;;;;;;17.47;69.56;99321.00;5062986;28;20428;-89
2022/09/30 01:47:45;;;;;;;0.65;0.50;;;;;;;16.75;71.23;99290.69;5068346;28;20032;-90
2022/09/30 01:50:25;;;;;;;0.20;0.20;;;;;;;17.10;70.75;99322.78;5068566;28;20032;-89
2022/09/30 01:53:12;;;;;;;0.20;0.20;;;;;;;17.10;71.09;99341.44;5068216;28;20024;-89
2022/09/30 01:55:37;;;;;;;1.52;1.20;;;;;;;16.94;71.30;99344.84;5068333;28;20059;-89
2022/09/30 01:58:13;;;;;;;1.05;1.05;;;;;;;16.89;70.69;99304.25;5068801;28;20067;-89
2022/09/30 02:00:43;;;;;;;0.30;0.25;;;;;;;16.80;70.29;99296.66;5068752;28;20039;-90
2022/09/30 02:03:17;;;;;;;0.20;0.20;;;;;;;16.89;70.13;99295.41;5068547;28;20037;-90
2022/09/30 02:05:52;;;;;;;0.10;0.10;;;;;;;17.06;70.75;99331.91;5067508;28;20086;-90
2022/09/30 02:08:30;;;;;;;2.50;1.27;;;;;;;17.00;70.17;99304.59;5068171;28;20040;-90
2022/09/30 02:11:14;;;;;;;0.38;0.38;;;;;;;16.86;70.22;99298.16;5050482;28;20660;-90
2022/09/30 02:14:01;;;;;;;0.30;0.30;;;;;;;17.08;70.59;99341.53;5048701;28;20051;-88
2022/09/30 02:16:38;;;;;;;0.15;0.15;;;;;;;16.94;71.00;99339.50;5046090;28;20091;-90
2022/09/30 02:19:17;;;;;;;1.23;1.23;;;;;;;16.87;70.92;99337.19;5047185;28;20036;-88
2022/09/30 02:21:47;;;;;;;0.10;0.10;;;;;;;16.40;71.95;99319.78;5061140;28;20112;-89
2022/09/30 02:24:16;;;;;;;0.13;0.13;;;;;;;16.24;71.51;99304.50;5067241;28;20033;-89
2022/09/30 02:26:46;;;;;;;0.10;0.10;;;;;;;16.35;71.52;99322.66;5057677;28;20041;-89
2022/09/30 02:29:26;;;;;;;0.77;0.77;;;;;;;16.36;72.55;99313.75;5056232;28;20032;-90
2022/09/30 02:31:57;;;;;;;0.93;0.90;;;;;;;16.70;72.29;99338.84;5068255;28;20032;-88
2022/09/30 02:34:29;;;;;;;1.35;1.25;;;;;;;16.44;72.19;99305.41;5067737;28;20057;-88
2022/09/30 02:37:09;;;;;;;0.20;0.20;;;;;;;16.72;71.96;99341.44;5067905;28;20085;-89
2022/09/30 02:39:47;;;;;;;0.22;0.22;;;;;;;16.62;72.35;99319.66;5067423;28;20032;-89
2022/09/30 02:42:21;;;;;;;1.30;1.27;;;;;;;16.79;71.74;99321.53;5067364;28;20029;-89
2022/09/30 02:44:50;;;;;;;0.20;0.20;;;;;;;16.72;71.59;99309.47;5067416;28;20051;-89
2022/09/30 02:47:34;;;;;;;1.13;1.10;;;;;;;16.50;71.70;99278.50;5061080;28;20048;-88
2022/09/30 02:50:11;;;;;;;1.00;1.00;;;;;;;16.46;71.21;99284.91;5043038;28;20036;-89
2022/09/30 02:52:51;;;;;;;0.75;0.73;;;;;;;16.73;71.17;99352.00;5059317;28;20040;-89
2022/09/30 02:55:18;;;;;;;0.52;0.52;;;;;;;16.84;70.32;99327.53;5066723;28;20498;-89
2022/09/30 02:57:59;;;;;;;0.28;0.28;;;;;;;16.87;70.02;99345.19;5067444;28;20032;-89
2022/09/30 03:00:25;;;;;;;1.60;0.85;;;;;;;16.22;70.32;99236.28;5067075;28;20086;-90
2022/09/30 03:03:02;;;;;;;1.25;0.95;;;;;;;16.69;70.11;99304.28;5066698;28;20611;-90
2022/09/30 03:05:28;;;;;;;0.13;0.13;;;;;;;16.92;70.03;99340.53;5049338;28;20140;-90
2022/09/30 03:07:55;;;;;;;0.20;0.20;;;;;;;16.67;70.39;99311.47;5067124;28;20039;-90
2022/09/30 03:10:20;;;;;;;0.98;0.98;;;;;;;16.58;71.41;99337.59;5049759;28;20123;-90
2022/09/30 03:13:11;;;;;;;5.38;1.60;;;;;;;16.54;71.86;99351.97;5068164;28;20119;-88
2022/09/30 03:16:05;;;;;;;0.43;0.43;;;;;;;16.57;72.01;99354.47;5067166;28;20048;-89
2022/09/30 03:18:45;;;;;;;0.60;0.57;;;;;;;16.48;72.33;99362.88;5058323;28;20426;-87
2022/09/30 03:21:19;;;;;;;1.80;1.05;;;;;;;16.30;72.58;99340.63;5065185;28;20028;-89
2022/09/30 03:23:45;;;;;;;1.02;1.02;;;;;;;16.59;71.90;99378.38;5056089;28;20507;-89
2022/09/30 03:26:39;;;;;;;0.30;0.30;;;;;;;15.96;73.80;99347.41;5059541;28;20033;-87
2022/09/30 03:29:14;;;;;;;0.20;0.20;;;;;;;16.41;72.48;99345.47;5029260;28;20124;-88
2022/09/30 03:31:54;;;;;;;4.13;1.67;;;;;;;16.45;73.53;99379.00;5050579;28;20107;-90
2022/09/30 03:34:45;;;;;;;0.30;0.30;;;;;;;16.38;73.41;99348.28;5062509;28;20299;-90
2022/09/30 03:37:32;;;;;;;1.55;1.08;;;;;;;16.52;72.79;99343.19;5047868;28;20036;-89
2022/09/30 03:40:16;;;;;;;2.33;2.17;;;;;;;16.52;72.17;99334.34;5064227;28;20414;-89
2022/09/30 03:42:57;;;;;;;0.55;0.55;;;;;;;16.40;73.10;99375.69;5037882;28;20040;-89
2022/09/30 03:45:33;;;;;;;0.52;0.52;;;;;;;16.38;73.05;99367.75;5048052;28;20064;-91
2022/09/30 03:48:05;;;;;;;0.50;0.50;;;;;;;16.37;73.32;99376.66;5067760;28;20033;-90
2022/09/30 03:50:34;;;;;;;2.70;2.50;;;;;;;15.98;74.33;99385.44;5066676;28;20107;-89
2022/09/30 03:52:59;;;;;;;0.70;0.68;;;;;;;15.76;74.59;99351.72;5048842;28;20549;-90
2022/09/30 03:55:27;;;;;;;0.25;0.25;;;;;;;15.99;74.38;99380.97;5047622;28;20040;-89
2022/09/30 03:57:53;;;;;;;1.17;1.17;;;;;;;15.99;74.75;99378.31;5040420;28;20895;-91
2022/09/30 04:00:19;;;;;;;0.10;0.10;;;;;;;15.84;74.90;99339.97;5057098;28;20059;-89
2022/09/30 04:02:44;;;;;;;2.63;2.40;;;;;;;15.96;75.49;99379.34;5042377;28;20486;-90
2022/09/30 04:05:10;;;;;;;1.30;1.13;;;;;;;16.16;74.60;99385.59;5066698;28;20036;-91
2022/09/30 04:07:36;;;;;;;1.10;1.05;;;;;;;16.20;75.26;99395.16;5066591;28;20040;-91
2022/09/30 04:10:02;;;;;;;4.78;1.67;;;;;;;16.09;74.81;99355.72;5049609;28;20045;-92
2022/09/30 04:12:28;;;;;;;1.05;1.05;;;;;;;16.26;74.07;99390.44;5048145;28;20131;-92
2022/09/30 04:14:53;;;;;;;1.35;1.08;;;;;;;16.05;73.99;99351.44;5059214;28;20675;-89
2022/09/30 04:17:19;;;;;;;;;;;;;;;16.44;73.36;99407.41;5046746;28;20098;-87
2022/09/30 04:19:44;;;;;;;0.30;0.30;;;;;;;16.27;73.42;99396.66;5051338;28;19920;-87
2022/09/30 04:22:09;;;;;;;0.38;0.38;;;;;;;16.22;74.22;99406.59;5065384;28;20490;-86
2022/09/30 04:24:35;;;;;;;0.35;0.35;;;;;;;16.15;73.99;99398.03;5066477;28;20040;-88
2022/09/30 04:27:02;;;;;;;0.20;0.20;;;;;;;16.04;73.60;99390.50;5066745;28;20489;-87
2022/09/30 04:29:27;;;;;;;1.02;0.73;;;;;;;15.86;73.03;99383.28;5066058;28;20029;-87
2022/09/30 04:31:53;;;;;;;0.73;0.73;;;;;;;16.16;72.36;99428.16;5065896;28;20528;-89
2022/09/30 04:34:18;;;;;;;0.55;0.55;;;;;;;16.07;72.57;99435.59;5065636;28;20575;-90
2022/09/30 04:36:44;;;;;;;1.00;1.00;;;;;;;15.65;71.58;99390.34;5070373;28;20037;-92
2022/09/30 04:39:10;;;;;;;0.20;0.20;;;;;;;15.29;72.71;99373.16;5067682;28;20035;-92
2022/09/30 04:41:35;;;;;;;1.85;1.08;;;;;;;15.56;72.94;99419.03;5049806;28;20044;-91
2022/09/30 04:44:05;;;;;;;0.65;0.65;;;;;;;15.85;72.72;99442.72;5069801;28;20044;-90
2022/09/30 04:46:37;;;;;;;2.53;1.67;;;;;;;15.61;72.62;99410.84;5069668;28;20086;-91
2022/09/30 04:49:04;;;;;;;1.10;0.98;;;;;;;15.66;72.36;99431.94;5069813;28;20024;-91
2022/09/30 04:51:30;;;;;;;0.40;0.40;;;;;;;15.26;72.66;99397.19;5067884;28;20032;-89
2022/09/30 04:53:55;;;;;;;0.50;0.50;;;;;;;15.39;72.92;99426.81;5068975;28;20055;-89
2022/09/30 04:56:22;;;;;;;0.70;0.70;;;;;;;15.35;72.78;99403.91;5069606;28;20442;-90
2022/09/30 04:58:48;;;;;;;0.45;0.45;;;;;;;15.39;72.99;99414.38;5068759;28;20036;-89
2022/09/30 05:01:15;;;;;;;0.20;0.20;;;;;;;15.32;74.35;99439.47;5069488;28;20469;-89
2022/09/30 05:03:42;;;;;;;0.30;0.30;;;;;;;15.45;73.96;99436.34;5069302;28;20036;-90
2022/09/30 05:06:08;;;;;;;0.20;0.20;;;;;;;15.79;72.98;99464.28;5069778;28;20112;-87
2022/09/30 05:08:34;;;;;;;0.68;0.60;;;;;;;15.81;73.18;99465.94;5068978;28;20043;-87
2022/09/30 05:11:03;;;;;;;8.27;1.10;;;;;;;15.96;73.28;99475.09;5069471;28;20037;-87
2022/09/30 05:13:31;;;;;;;1.08;1.08;;;;;;;16.08;73.16;99487.00;5068018;28;20036;-91
2022/09/30 05:15:57;;;;;;;0.45;0.45;;;;;;;15.87;73.72;99457.72;5069348;28;20135;-91
2022/09/30 05:18:25;;;;;;;7.57;2.15;;;;;;;15.98;73.30;99459.06;5068022;28;20554;-91
2022/09/30 05:20:58;;;;;;;0.77;0.77;;;;;;;16.49;73.87;99502.22;5069598;28;20032;-90
2022/09/30 05:23:25;;;;;;;0.68;0.68;;;;;;;16.41;73.64;99465.25;5068735;28;20028;-89
2022/09/30 05:25:51;;;;;;;2.80;2.60;;;;;;;16.56;73.62;99480.56;5068621;28;20024;-90
2022/09/30 05:28:17;;;;;;;1.92;1.83;;;;;;;16.92;72.93;99511.88;5068912;28;20102;-90
2022/09/30 05:30:44;;;;;;;1.23;1.08;;;;;;;16.94;72.85;99495.84;5067386;28;20068;-89
2022/09/30 05:33:11;;;;;;;0.30;0.30;;;;;;;17.00;72.96;99485.75;5067753;28;20553;-89
2022/09/30 05:35:41;;;;;;;1.13;1.13;;;;;;;17.20;73.09;99502.66;5068305;28;20490;-87
2022/09/30 05:38:08;;;;;;;1.50;1.45;;;;;;;17.25;73.39;99497.13;5068530;28;20082;-90
2022/09/30 05:40:37;;;;;;;3.70;1.75;;;;;;;17.33;73.20;99477.19;5068115;28;20033;-88
2022/09/30 05:43:02;;;;;;;1.02;1.02;;;;;;;17.27;73.53;99465.91;5067640;28;20028;-87
2022/09/30 05:45:28;;;;;;;1.55;1.45;;;;;;;17.97;72.22;99515.09;5067907;28;20051;-89
2022/09/30 05:47:54;;;;;;;1.20;1.20;;;;;;;17.84;71.51;99482.78;5049596;28;20095;-89
2022/09/30 05:50:21;;;;;;;3.75;2.05;;;;;;;18.36;70.48;99507.88;5068848;28;20509;-88
2022/09/30 05:52:47;;;;;;;1.85;1.30;;;;;;;18.47;70.67;99524.22;5068222;28;20033;-88
2022/09/30 05:55:13;;;;;;;1.10;1.00;;;;;;;18.61;69.75;99486.13;5068569;28;20512;-88
2022/09/30 05:57:38;;;;;;;0.63;0.63;;;;;;;19.01;69.07;99513.47;5067426;28;20082;-88
2022/09/30 06:00:05;;;;;;;3.00;2.72;;;;;;;19.22;67.78;99507.94;5066953;28;20029;-87
2022/09/30 06:02:31;;;;;;;1.38;1.27;;;;;;;19.53;67.05;99511.63;5049388;28;20506;-88
2022/09/30 06:04:56;;;;;;;2.42;1.63;;;;;;;19.72;66.26;99508.78;5067682;28;20032;-88
2022/09/30 06:07:22;;;;;;;1.40;1.30;;;;;;;20.00;65.12;99500.09;5067728;28;20032;-88
2022/09/30 06:09:47;;;;;;;3.13;1.15;;;;;;;20.13;64.46;99498.44;5049371;28;20106;-87
2022/09/30 06:12:14;;;;;;;0.60;0.60;;;;;;;20.39;64.35;99514.81;5067240;28;20031;-89
2022/09/30 06:14:39;;;;;;;2.78;1.35;;;;;;;20.35;63.68;99510.59;5068033;28;20736;-89
2022/09/30 06:17:05;;;;;;;0.47;0.47;;;;;;;20.68;63.23;99512.25;5068195;28;20036;-88
2022/09/30 06:19:31;;;;;;;1.92;1.20;;;;;;;20.50;63.97;99515.06;5068443;28;20029;-87
2022/09/30 06:21:57;;;;;;;0.73;0.73;;;;;;;20.74;63.00;99527.97;5068241;28;20528;-88
2022/09/30 06:24:23;;;;;;;0.95;0.95;;;;;;;20.84;62.04;99521.13;5067914;28;20044;-89
2022/09/30 06:26:48;;;;;;;1.15;1.02;;;;;;;21.03;62.40;99504.75;5067717;28;20029;-89
2022/09/30 06:29:14;;;;;;;0.75;0.73;;;;;;;21.69;60.97;99540.06;5068116;28;20693;-89
2022/09/30 06:31:39;;;;;;;3.40;2.22;;;;;;;21.61;60.59;99500.28;5068281;28;20502;-88
2022/09/30 06:34:05;;;;;;;1.92;1.80;;;;;;;21.76;59.24;99530.63;5067789;28;20045;-88
2022/09/30 06:36:32;;;;;;;2.97;1.73;;;;;;;21.87;58.94;99500.41;5068127;28;20029;-89
2022/09/30 06:39:00;;;;;;;3.67;0.98;;;;;;;21.70;58.94;99520.28;5067477;28;20037;-89
2022/09/30 06:41:26;;;;;;;0.60;0.60;;;;;;;21.65;59.00;99538.53;5067241;28;20502;-87
2022/09/30 06:43:52;;;;;;;0.43;0.43;;;;;;;21.84;58.55;99540.88;5067596;28;20038;-89
2022/09/30 06:46:22;;;;;;;1.60;1.23;;;;;;;21.77;57.93;99536.88;5067799;28;20036;-89
2022/09/30 06:48:51;;;;;;;1.42;1.33;;;;;;;21.36;59.98;99559.94;5067500;28;20036;-89
2022/09/30 06:51:17;;;;;;;1.42;1.33;;;;;;;21.89;58.50;99546.84;5067601;28;20032;-88
2022/09/30 06:53:43;;;;;;;1.88;0.90;;;;;;;22.59;57.58;99563.84;5067724;28;20504;-88
2022/09/30 06:56:08;;;;;;;1.35;0.75;;;;;;;22.44;56.50;99517.34;5067309;28;20033;-90
2022/09/30 06:58:34;;;;;;;3.15;1.45;;;;;;;22.94;57.14;99523.78;5067388;28;20071;-89
2022/09/30 07:01:02;;;;;;;0.30;0.30;;;;;;;23.69;55.09;99547.25;5049213;28;20040;-89
2022/09/30 07:03:30;;;;;;;1.92;1.58;;;;;;;23.74;53.47;99549.59;5067444;28;20032;-88
2022/09/30 07:06:00;;;;;;;2.15;1.17;;;;;;;23.58;52.95;99548.00;5066956;28;20082;-88
2022/09/30 07:08:30;;;;;;;2.03;1.80;;;;;;;23.80;52.91;99548.31;5066970;28;20032;-88
2022/09/30 07:10:57;;;;;;;2.50;2.30;;;;;;;23.98;52.53;99556.94;5067338;28;20097;-89
2022/09/30 07:13:22;;;;;;;0.65;0.65;;;;;;;23.97;53.17;99542.59;5067690;28;20058;-91
2022/09/30 07:15:51;;;;;;;4.03;3.55;;;;;;;24.42;51.27;99574.31;5068312;28;20036;-91
2022/09/30 07:18:19;;;;;;;5.07;1.52;;;;;;;24.57;51.62;99561.53;5067420;28;20032;-89
2022/09/30 07:20:52;;;;;;;1.45;1.35;;;;;;;24.93;49.60;99576.81;5067826;28;20490;-89
2022/09/30 07:23:18;;;;;;;1.23;1.13;;;;;;;25.26;48.49;99575.16;5067208;28;20036;-88
2022/09/30 07:25:56;;;;;;;1.15;1.08;;;;;;;24.62;49.84;99554.88;5067816;28;20056;-88
2022/09/30 07:28:29;;;;;;;1.60;1.50;;;;;;;24.67;50.95;99533.78;5067766;28;20046;-87
2022/09/30 07:30:55;;;;;;;2.30;1.75;;;;;;;24.66;51.30;99575.22;5067820;28;20028;-90
2022/09/30 07:33:22;;;;;;;11.70;2.08;;;;;;;24.28;50.56;99541.19;5067873;28;20772;-90
2022/09/30 07:35:58;;;;;;;1.65;1.35;;;;;;;24.84;50.84;99585.59;5067130;28;20036;-90
2022/09/30 07:38:26;;;;;;;0.63;0.63;;;;;;;25.22;49.72;99576.38;5066590;28;20108;-90
2022/09/30 07:40:57;;;;;;;1.95;1.70;;;;;;;25.22;50.54;99562.03;5047691;28;20036;-89
2022/09/30 07:43:24;;;;;;;0.08;0.08;;;;;;;25.40;50.41;99582.22;5066655;28;20039;-89
2022/09/30 07:45:50;;;;;;;1.33;1.23;;;;;;;25.65;50.59;99572.16;5066805;28;20127;-90
2022/09/30 07:51:00;;;;;;;4.07;2.05;;;;;;;25.99;47.61;99554.09;5066236;28;20038;-89
2022/09/30 07:53:25;;;;;;;0.25;0.25;;;;;;;26.01;46.47;99559.38;5065677;28;20123;-89
2022/09/30 07:55:51;;;;;;;1.15;1.05;;;;;;;25.16;48.90;99544.47;5066929;28;20474;-90
2022/09/30 07:58:17;;;;;;;1.70;1.02;;;;;;;25.72;46.02;99565.28;5066880;28;20072;-89
2022/09/30 08:00:42;;;;;;;0.60;0.60;;;;;;;26.39;43.71;99585.13;5066882;28;20136;-89
2022/09/30 08:03:08;;;;;;;1.55;1.42;;;;;;;26.34;44.30;99566.56;5066610;28;20864;-90
2022/09/30 08:05:43;;;;;;;2.75;1.05;;;;;;;25.95;46.30;99581.47;5066612;28;20391;-89
2022/09/30 08:08:10;;;;;;;6.85;2.30;;;;;;;25.96;47.38;99594.84;5066476;28;20025;-89
2022/09/30 08:10:35;;;;;;;1.48;1.38;;;;;;;26.18;45.95;99574.22;5066500;28;20033;-89
2022/09/30 08:13:01;;;;;;;0.25;0.25;;;;;;;26.21;45.03;99599.19;5066370;28;20504;-89
2022/09/30 08:15:26;;;;;;;1.08;0.88;;;;;;;26.09;45.90;99565.91;5066336;28;20042;-89
2022/09/30 08:17:52;;;;;;;1.00;0.73;;;;;;;26.34;47.00;99560.31;5069117;28;20032;-90
2022/09/30 08:20:17;;;;;;;1.45;1.00;;;;;;;26.51;44.65;99596.75;5070507;28;20044;-90
2022/09/30 08:22:43;;;;;;;0.13;0.13;;;;;;;26.73;44.60;99602.13;5070175;28;20478;-90
2022/09/30 08:25:08;;;;;;;10.73;1.15;;;;;;;26.50;44.97;99586.94;5069902;28;20047;-89
2022/09/30 08:27:34;;;;;;;29.30;0.88;;;;;;;26.93;42.69;99602.28;5070313;28;20103;-89
2022/09/30 08:29:59;;;;;;;1.35;1.23;;;;;;;26.93;43.78;99602.28;5070027;28;20546;-89
2022/09/30 08:32:24;;;;;;;0.28;0.28;;;;;;;26.94;42.67;99595.88;5070163;28;20532;-89
2022/09/30 08:34:50;;;;;;;0.45;0.45;;;;;;;26.83;44.09;99590.53;5070103;28;20488;-88
2022/09/30 08:37:15;;;;;;;0.80;0.32;;;;;;;26.88;47.00;99601.81;5069856;28;20036;-89
2022/09/30 08:39:42;;;;;;;1.77;1.40;;;;;;;26.80;44.53;99591.63;5069723;28;20035;-89
2022/09/30 08:42:19;;;;;;;0.88;0.85;;;;;;;26.56;43.94;99627.84;5069626;28;20029;-90
2022/09/30 08:44:47;;;;;;;1.83;1.35;;;;;;;25.96;44.59;99602.97;5070027;28;20677;-91
2022/09/30 08:47:32;;;;;;;1.30;1.17;;;;;;;26.21;44.78;99618.09;5070233;28;20466;-90
2022/09/30 08:50:11;;;;;;;;;;;;;;;26.58;44.39;99609.63;5070054;28;20044;-89
2022/09/30 08:52:46;;;;;;;0.47;0.47;;;;;;;26.45;44.64;99593.56;5069546;28;19916;-88
2022/09/30 08:55:21;;;;;;;3.40;2.63;;;;;;;26.60;43.44;99601.38;5069531;28;20028;-88
2022/09/30 08:57:47;;;;;;;0.68;0.68;;;;;;;26.75;43.67;99623.63;5069549;28;20520;-88
2022/09/30 09:00:16;;;;;;;0.73;0.73;;;;;;;26.78;43.90;99609.84;5069549;28;20036;-89
2022/09/30 09:02:42;;;;;;;2.30;0.73;;;;;;;26.82;43.08;99607.72;5069884;28;20133;-89
2022/09/30 09:05:18;;;;;;;1.52;1.33;;;;;;;26.74;42.81;99624.63;5069581;28;20502;-89
2022/09/30 09:08:14;;;;;;;1.05;0.95;;;;;;;25.96;44.33;99627.28;5069632;28;20077;-88
2022/09/30 09:10:52;;;;;;;0.17;0.17;;;;;;;25.97;44.90;99620.91;5065066;28;20103;-89
2022/09/30 09:13:24;;;;;;;0.80;0.70;;;;;;;26.15;44.68;99631.25;5051482;28;20029;-89
2022/09/30 09:16:12;;;;;;;0.70;0.50;;;;;;;26.13;44.89;99593.53;5056350;28;20048;-90
2022/09/30 09:19:09;;;;;;;0.35;0.35;;;;;;;26.26;45.21;99610.47;5065835;28;20044;-88
2022/09/30 09:21:41;;;;;;;1.20;0.47;;;;;;;26.39;44.73;99620.28;5042395;28;20147;-90
2022/09/30 09:24:18;;;;;;;0.98;0.88;;;;;;;26.48;44.67;99597.00;5061921;28;20041;-90
2022/09/30 09:26:45;;;;;;;0.82;0.82;;;;;;;26.23;46.21;99602.59;5061704;28;20024;-90
2022/09/30 09:29:26;;;;;;;3.50;2.00;;;;;;;26.69;43.79;99634.97;5056595;28;20040;-91
2022/09/30 09:31:54;;;;;;;0.35;0.35;;;;;;;26.44;43.89;99609.94;5064334;28;20053;-90
2022/09/30 09:34:22;;;;;;;0.60;0.57;;;;;;;26.30;43.96;99577.78;5067975;28;20052;-90
2022/09/30 09:37:16;;;;;;;1.10;1.00;;;;;;;26.40;44.14;99632.78;5070197;28;20044;-89
2022/09/30 09:39:44;;;;;;;1.27;0.93;;;;;;;26.32;44.27;99636.16;5071221;28;20032;-89
2022/09/30 09:42:31;;;;;;;1.02;1.02;;;;;;;26.31;45.03;99637.13;5070459;28;20694;-91
2022/09/30 09:45:07;;;;;;;1.65;1.55;;;;;;;26.29;43.91;99631.00;5068438;28;20032;-91
2022/09/30 09:47:33;;;;;;;4.25;2.72;;;;;;;26.17;43.99;99613.06;5068375;28;20028;-87
2022/09/30 09:50:02;;;;;;;0.85;0.82;;;;;;;26.47;43.64;99649.38;5071779;28;20039;-88
2022/09/30 09:53:02;;;;;;;1.25;1.05;;;;;;;26.12;44.11;99620.69;5060416;28;20020;-88
2022/09/30 09:55:28;;;;;;;2.80;2.42;;;;;;;26.54;43.01;99618.13;5088377;28;20013;-90
2022/09/30 09:58:12;;;;;;;1.10;1.05;;;;;;;26.26;43.44;99585.28;5087689;28;20031;-88
2022/09/30 10:03:39;;;;;;;1.13;1.08;;;;;;;26.90;42.50;99614.22;5082118;28;20036;-88
2022/09/30 10:06:05;;;;;;;;;;;;;;;26.74;42.99;99625.50;5052522;28;20044;-89
2022/09/30 10:08:54;;;;;;;3.33;1.67;;;;;;;27.16;41.47;99613.88;5084984;28;19923;-89
2022/09/30 10:11:24;;;;;;;0.77;0.75;;;;;;;27.10;41.65;99615.25;5068317;28;20094;-89
2022/09/30 10:13:55;;;;;;;1.40;1.30;;;;;;;27.01;41.65;99583.53;5069223;28;20039;-90
2022/09/30 10:16:34;;;;;;;1.48;1.38;;;;;;;27.44;41.18;99611.50;5068834;28;20094;-88
2022/09/30 10:19:02;;;;;;;1.05;1.00;;;;;;;27.27;42.03;99589.41;5050807;28;20851;-88
2022/09/30 10:21:29;;;;;;;0.20;0.20;;;;;;;27.65;39.65;99611.47;5068974;28;20078;-86
2022/09/30 10:23:58;;;;;;;3.33;2.53;;;;;;;27.35;39.84;99579.81;5068767;28;20037;-86
2022/09/30 10:26:26;;;;;;;1.42;1.33;;;;;;;27.57;40.21;99600.47;5069299;28;20044;-90
2022/09/30 10:28:53;;;;;;;1.23;1.13;;;;;;;27.51;40.56;99583.75;5051499;28;20032;-88
2022/09/30 10:31:26;;;;;;;1.65;1.00;;;;;;;27.90;39.30;99603.88;5068695;28;20035;-91
2022/09/30 10:34:09;;;;;;;0.90;0.85;;;;;;;28.06;39.03;99601.56;5068941;28;20052;-91
2022/09/30 10:36:36;;;;;;;0.28;0.28;;;;;;;28.00;38.76;99570.44;5050911;28;20175;-91
2022/09/30 10:39:07;;;;;;;1.20;1.10;;;;;;;28.17;39.50;99582.47;5067710;28;20043;-90
2022/09/30 10:41:37;;;;;;;5.30;2.05;;;;;;;28.11;39.03;99541.50;5068503;28;20032;-90
2022/09/30 10:44:18;;;;;;;2.15;1.95;;;;;;;28.38;37.51;99579.66;5068976;28;20032;-90
2022/09/30 10:46:48;;;;;;;1.50;1.40;;;;;;;28.22;37.83;99560.34;5064026;28;20032;-88
2022/09/30 10:49:27;;;;;;;0.57;0.57;;;;;;;28.23;38.03;99586.47;5068961;28;20017;-91
2022/09/30 10:51:55;;;;;;;0.65;0.65;;;;;;;28.19;37.31;99564.22;5068378;28;20414;-89
2022/09/30 10:54:48;;;;;;;0.32;0.32;;;;;;;28.26;37.01;99545.53;5068317;28;20036;-90
2022/09/30 10:57:30;;;;;;;1.60;1.35;;;;;;;28.28;36.50;99567.94;5068972;28;20449;-91
2022/09/30 11:00:05;;;;;;;1.30;0.73;;;;;;;28.33;36.41;99546.69;5049982;28;20043;-90
2022/09/30 11:02:40;;;;;;;;;;;;;;;28.15;36.73;99580.91;5069069;28;20031;-89
2022/09/30 11:05:08;;;;;;;3.13;1.95;;;;;;;28.20;36.78;99575.91;5068431;28;20390;-89
2022/09/30 11:07:52;;;;;;;1.05;0.95;;;;;;;28.35;36.11;99550.09;5049785;28;20425;-89
2022/09/30 11:10:38;;;;;;;1.25;0.93;;;;;;;28.44;36.49;99572.81;5067321;28;20481;-90
2022/09/30 11:13:12;;;;;;;0.85;0.85;;;;;;;28.48;36.96;99549.81;5068275;28;20033;-89
2022/09/30 11:15:40;;;;;;;1.30;1.10;;;;;;;28.80;36.93;99578.56;5069840;28;20245;-88
2022/09/30 11:18:21;;;;;;;1.88;1.35;;;;;;;28.79;37.15;99567.88;5069381;28;20109;-89
2022/09/30 11:20:55;;;;;;;1.58;1.48;;;;;;;28.61;36.57;99536.03;5069304;28;20850;-88
2022/09/30 11:23:36;;;;;;;1.45;1.35;;;;;;;28.67;35.44;99564.44;5068678;28;20051;-88
2022/09/30 11:26:19;;;;;;;31.05;0.98;;;;;;;28.84;35.44;99552.00;5068977;28;20126;-87
2022/09/30 11:29:30;;;;;;;2.15;1.95;;;;;;;28.62;34.35;99555.88;5068931;28;20034;-90
2022/09/30 11:31:58;;;;;;;1.00;0.73;;;;;;;28.66;33.72;99562.72;5031945;28;20140;-90
2022/09/30 11:34:45;;;;;;;1.23;1.10;;;;;;;28.53;33.87;99574.69;5068713;28;20063;-88
2022/09/30 11:37:57;;;;;;;0.65;0.65;;;;;;;28.39;33.88;99529.84;5068429;28;20033;-88
2022/09/30 11:40:41;;;;;;;0.82;0.75;;;;;;;28.61;33.82;99557.72;5068451;28;20025;-89
2022/09/30 11:43:28;;;;;;;2.15;0.90;;;;;;;28.71;33.25;99558.56;5051388;28;20422;-89
2022/09/30 11:46:32;;;;;;;2.65;1.35;;;;;;;28.67;34.07;99554.44;5069811;28;20486;-88
2022/09/30 11:49:08;;;;;;;0.55;0.40;;;;;;;28.69;33.13;99524.47;5069468;28;20032;-89
2022/09/30 11:51:52;;;;;;;0.85;0.82;;;;;;;28.93;33.16;99546.56;5072275;28;20086;-89
2022/09/30 11:54:41;;;;;;;0.37;0.37;;;;;;;29.08;32.21;99546.97;5074174;28;20067;-88
2022/09/30 11:57:19;;;;;;;0.17;0.17;;;;;;;29.06;33.56;99545.41;5073619;28;20032;-90
2022/09/30 11:59:52;;;;;;;0.00;0.00;;;;;;;28.94;32.94;99520.28;5074028;28;20028;-89
2022/09/30 12:02:39;;;;;;;1.23;1.13;;;;;;;29.13;34.31;99545.69;5072966;28;20024;-89